createdAt,value
2023-04-13T00:00:23.849Z,1.48
2023-04-13T00:02:55.834Z,2.00
2023-04-13T00:05:25.069Z,1.70
2023-04-13T00:07:54.803Z,1.67
2023-04-13T00:12:52.000Z,1.52
2023-04-13T00:15:20.646Z,1.85
2023-04-13T00:17:48.618Z,2.33
2023-04-13T00:20:16.751Z,2.13
2023-04-13T00:22:45.809Z,2.22
2023-04-13T00:25:16.507Z,1.80
2023-04-13T00:27:44.895Z,2.10
2023-04-13T00:30:15.747Z,2.17
2023-04-13T00:32:45.722Z,2.05
2023-04-13T00:35:18.580Z,1.92
2023-04-13T00:37:47.830Z,2.08
2023-04-13T00:40:17.922Z,2.05
2023-04-13T00:42:46.189Z,2.08
2023-04-13T00:45:14.725Z,1.95
2023-04-13T00:47:46.601Z,1.80
2023-04-13T00:50:15.348Z,1.60
2023-04-13T00:52:43.725Z,1.77
2023-04-13T00:55:11.707Z,2.60
2023-04-13T00:57:42.399Z,1.90
2023-04-13T01:00:11.033Z,2.10
2023-04-13T01:02:42.199Z,1.88
2023-04-13T01:05:12.937Z,2.22
2023-04-13T01:07:56.705Z,2.20
2023-04-13T01:10:30.309Z,1.98
2023-04-13T01:13:10.189Z,1.83
2023-04-13T01:15:41.372Z,1.92
2023-04-13T01:18:12.193Z,2.38
2023-04-13T01:20:44.080Z,1.67
2023-04-13T01:23:25.132Z,1.98
2023-04-13T01:25:58.167Z,1.98
2023-04-13T01:28:28.871Z,1.80
2023-04-13T01:31:00.829Z,1.52
2023-04-13T01:33:30.635Z,1.67
2023-04-13T01:36:01.252Z,1.80
2023-04-13T01:38:29.890Z,2.05
2023-04-13T01:40:58.186Z,1.90
2023-04-13T01:43:29.255Z,1.90
2023-04-13T01:46:04.101Z,2.05
2023-04-13T01:48:37.657Z,1.90
2023-04-13T01:51:09.844Z,2.10
2023-04-13T01:53:43.447Z,2.38
2023-04-13T01:56:12.969Z,2.40
2023-04-13T01:58:44.299Z,2.33
2023-04-13T02:01:12.755Z,2.40
2023-04-13T02:03:43.246Z,2.28
2023-04-13T02:06:11.792Z,1.85
2023-04-13T02:08:40.199Z,1.75
2023-04-13T02:11:08.715Z,1.30
2023-04-13T02:13:36.829Z,1.58
2023-04-13T02:16:07.841Z,1.15
2023-04-13T02:18:35.553Z,1.17
2023-04-13T02:21:08.956Z,1.20
2023-04-13T02:23:37.287Z,1.13
2023-04-13T02:26:05.644Z,1.10
2023-04-13T02:28:33.870Z,1.55
2023-04-13T02:31:03.197Z,0.82
2023-04-13T02:33:32.771Z,1.08
2023-04-13T02:36:02.735Z,1.00
2023-04-13T02:38:30.863Z,0.93
2023-04-13T02:41:00.544Z,0.77
2023-04-13T02:43:29.631Z,0.90
2023-04-13T02:45:58.276Z,1.00
2023-04-13T02:48:26.577Z,0.98
2023-04-13T02:50:56.738Z,1.02
2023-04-13T02:53:25.200Z,0.80
2023-04-13T02:55:53.657Z,0.90
2023-04-13T02:58:24.299Z,0.82
2023-04-13T03:00:52.149Z,0.80
2023-04-13T03:03:20.402Z,0.68
2023-04-13T03:05:51.136Z,0.68
2023-04-13T03:08:20.254Z,0.77
2023-04-13T03:10:48.022Z,0.90
2023-04-13T03:13:16.538Z,0.60
2023-04-13T03:15:44.204Z,0.60
2023-04-13T03:18:11.921Z,0.60
2023-04-13T03:20:40.341Z,0.70
2023-04-13T03:23:08.005Z,0.70
2023-04-13T03:25:37.066Z,0.82
2023-04-13T03:28:05.266Z,0.80
2023-04-13T03:30:33.039Z,0.90
2023-04-13T03:33:00.824Z,1.38
2023-04-13T03:35:29.122Z,0.85
2023-04-13T03:37:57.009Z,0.80
2023-04-13T03:40:24.776Z,0.98
2023-04-13T03:42:54.395Z,1.25
2023-04-13T03:47:49.716Z,1.25
2023-04-13T03:50:18.113Z,1.20
2023-04-13T03:52:45.792Z,1.30
2023-04-13T03:55:13.633Z,1.50
2023-04-13T03:57:41.981Z,1.10
2023-04-13T04:00:14.278Z,1.30
2023-04-13T04:02:42.779Z,1.30
2023-04-13T04:05:11.462Z,1.67
2023-04-13T04:07:39.179Z,1.40
2023-04-13T04:10:08.809Z,1.70
2023-04-13T04:15:05.358Z,1.80
2023-04-13T04:17:34.922Z,1.80
2023-04-13T04:20:03.716Z,2.20
2023-04-13T04:22:34.754Z,1.60
2023-04-13T04:25:02.984Z,2.03
2023-04-13T04:27:31.499Z,1.80
2023-04-13T04:30:00.918Z,1.80
2023-04-13T04:32:29.434Z,2.30
2023-04-13T04:34:58.538Z,2.00
2023-04-13T04:37:26.313Z,2.00
2023-04-13T04:39:55.445Z,1.80
2023-04-13T04:42:23.100Z,1.67
2023-04-13T04:44:50.760Z,1.90
2023-04-13T04:47:20.080Z,1.80
2023-04-13T04:49:47.821Z,1.70
2023-04-13T04:52:16.863Z,1.50
2023-04-13T04:54:45.034Z,1.70
2023-04-13T04:57:14.435Z,1.65
2023-04-13T04:59:42.136Z,1.85
2023-04-13T05:02:10.443Z,1.83
2023-04-13T05:04:38.366Z,1.50
2023-04-13T05:07:06.065Z,1.40
2023-04-13T05:09:37.551Z,1.50
2023-04-13T05:12:05.502Z,1.60
2023-04-13T05:14:33.239Z,1.48
2023-04-13T05:17:02.572Z,1.63
2023-04-13T05:19:30.283Z,2.10
2023-04-13T05:21:58.053Z,1.85
2023-04-13T05:24:26.491Z,2.22
2023-04-13T05:26:56.565Z,1.95
2023-04-13T05:29:24.303Z,2.25
2023-04-13T05:31:52.691Z,2.40
2023-04-13T05:34:21.121Z,2.17
2023-04-13T05:36:50.201Z,2.67
2023-04-13T05:39:18.392Z,2.80
2023-04-13T05:41:46.077Z,3.13
2023-04-13T05:44:15.119Z,2.85
2023-04-13T05:46:43.290Z,2.65
2023-04-13T05:49:11.084Z,3.10
2023-04-13T05:51:39.253Z,3.00
2023-04-13T05:54:10.200Z,3.45
2023-04-13T05:56:37.915Z,3.47
2023-04-13T05:59:05.596Z,3.10
2023-04-13T06:01:35.611Z,3.55
2023-04-13T06:04:03.704Z,3.17
2023-04-13T06:06:31.803Z,3.75
2023-04-13T06:09:00.363Z,3.15
2023-04-13T06:11:28.362Z,3.42
2023-04-13T06:13:57.522Z,3.88
2023-04-13T06:16:27.024Z,4.05
2023-04-13T06:18:56.199Z,3.65
2023-04-13T06:21:23.951Z,3.13
2023-04-13T06:23:52.206Z,3.50
2023-04-13T06:26:21.134Z,3.95
2023-04-13T06:28:48.871Z,3.85
2023-04-13T06:31:17.158Z,3.50
2023-04-13T06:33:44.856Z,3.08
2023-04-13T06:36:13.956Z,3.47
2023-04-13T06:38:43.419Z,3.55
2023-04-13T06:41:11.314Z,3.55
2023-04-13T06:43:38.999Z,3.72
2023-04-13T06:46:07.864Z,3.75
2023-04-13T06:48:35.953Z,3.78
2023-04-13T06:51:03.653Z,3.85
2023-04-13T06:53:33.945Z,3.75
2023-04-13T06:56:01.640Z,3.50
2023-04-13T06:58:30.155Z,4.03
2023-04-13T07:00:58.632Z,3.42
2023-04-13T07:03:28.262Z,3.87
2023-04-13T07:05:56.208Z,3.70
2023-04-13T07:08:24.423Z,3.60
2023-04-13T07:10:57.554Z,3.30
2023-04-13T07:13:26.313Z,3.50
2023-04-13T07:15:54.074Z,3.13
2023-04-13T07:18:21.827Z,3.25
2023-04-13T07:20:50.149Z,2.80
2023-04-13T07:23:18.014Z,3.22
2023-04-13T07:25:45.872Z,3.50
2023-04-13T07:28:15.508Z,3.92
2023-04-13T07:33:12.256Z,3.20
2023-04-13T07:35:40.730Z,3.25
2023-04-13T07:38:08.507Z,3.78
2023-04-13T07:40:36.705Z,3.17
2023-04-13T07:43:04.821Z,3.47
2023-04-13T07:45:34.014Z,3.45
2023-04-13T07:48:01.781Z,3.47
2023-04-13T07:50:30.287Z,3.08
2023-04-13T07:52:58.013Z,3.55
2023-04-13T07:55:25.849Z,3.20
2023-04-13T07:57:54.194Z,3.33
2023-04-13T08:00:23.010Z,3.45
2023-04-13T08:02:52.393Z,3.25
2023-04-13T08:05:20.984Z,2.83
2023-04-13T08:07:49.317Z,3.25
2023-04-13T08:10:17.325Z,3.05
2023-04-13T08:12:45.576Z,3.75
2023-04-13T08:15:13.290Z,2.78
2023-04-13T08:17:41.894Z,3.30
2023-04-13T08:20:14.097Z,3.97
2023-04-13T08:22:41.933Z,2.75
2023-04-13T08:25:10.144Z,3.63
2023-04-13T08:27:38.454Z,2.88
2023-04-13T08:30:08.205Z,3.30
2023-04-13T08:32:35.930Z,3.67
2023-04-13T08:35:07.349Z,2.90
2023-04-13T08:37:36.825Z,2.67
2023-04-13T08:40:07.986Z,2.95
2023-04-13T08:42:36.571Z,2.80
2023-04-13T08:45:04.790Z,3.15
2023-04-13T08:47:33.098Z,3.35
2023-04-13T08:50:01.919Z,3.47
2023-04-13T08:52:30.379Z,2.80
2023-04-13T08:55:01.570Z,3.50
2023-04-13T08:57:30.402Z,3.35
2023-04-13T08:59:59.451Z,2.95
2023-04-13T09:02:33.437Z,3.05
2023-04-13T09:05:06.192Z,3.00
2023-04-13T09:07:37.192Z,3.20
2023-04-13T09:10:07.944Z,3.22
2023-04-13T09:12:35.805Z,2.67
2023-04-13T09:15:06.662Z,3.17
2023-04-13T09:17:35.129Z,2.38
2023-04-13T09:20:15.381Z,2.92
2023-04-13T09:22:43.491Z,3.15
2023-04-13T09:25:23.433Z,2.47
2023-04-13T09:27:53.008Z,2.50
2023-04-13T09:30:22.226Z,2.75
2023-04-13T09:33:03.408Z,3.22
2023-04-13T09:35:32.308Z,2.65
2023-04-13T09:38:00.681Z,2.63
2023-04-13T09:40:30.489Z,2.50
2023-04-13T09:43:00.921Z,2.28
2023-04-13T09:45:35.643Z,2.70
2023-04-13T09:48:03.784Z,2.50
2023-04-13T09:50:33.797Z,2.58
2023-04-13T09:53:02.252Z,2.80
2023-04-13T09:55:32.940Z,2.33
2023-04-13T09:58:10.598Z,2.55
2023-04-13T10:00:40.049Z,2.40
2023-04-13T10:03:12.371Z,2.90
2023-04-13T10:05:55.275Z,2.08
2023-04-13T10:08:37.513Z,2.45
2023-04-13T10:11:11.973Z,2.10
2023-04-13T10:13:47.446Z,2.38
2023-04-13T10:16:36.682Z,2.33
2023-04-13T10:19:11.529Z,2.80
2023-04-13T10:21:40.855Z,3.13
2023-04-13T10:24:12.994Z,2.15
2023-04-13T10:26:45.000Z,2.33
2023-04-13T10:29:15.138Z,2.33
2023-04-13T10:31:46.694Z,2.03
2023-04-13T10:34:25.869Z,2.75
2023-04-13T10:36:56.164Z,2.40
2023-04-13T10:39:28.382Z,2.25
2023-04-13T10:42:05.815Z,2.22
2023-04-13T10:44:47.415Z,2.80
2023-04-13T10:47:16.424Z,2.30
2023-04-13T10:49:46.041Z,1.92
2023-04-13T10:54:42.783Z,2.13
2023-04-13T10:57:12.926Z,2.13
2023-04-13T10:59:56.282Z,2.28
2023-04-13T11:02:27.606Z,1.90
2023-04-13T11:04:56.327Z,2.13
2023-04-13T11:07:25.957Z,1.90
2023-04-13T11:12:31.118Z,2.33
2023-04-13T11:14:59.368Z,1.92
2023-04-13T11:17:27.503Z,1.85
2023-04-13T11:19:57.192Z,2.05
2023-04-13T11:22:28.329Z,1.95
2023-04-13T11:25:08.582Z,2.15
2023-04-13T11:27:39.135Z,1.83
2023-04-13T11:30:09.247Z,2.20
2023-04-13T11:32:40.825Z,1.80
2023-04-13T11:35:09.663Z,2.08
2023-04-13T11:37:38.483Z,1.77
2023-04-13T11:40:13.156Z,1.73
2023-04-13T11:42:44.724Z,1.67
2023-04-13T11:45:15.211Z,1.58
2023-04-13T11:47:43.474Z,1.58
2023-04-13T11:50:13.005Z,1.75
2023-04-13T11:52:43.085Z,1.90
2023-04-13T11:55:22.169Z,1.92
2023-04-13T11:57:53.823Z,1.30
2023-04-13T12:00:25.854Z,1.80
2023-04-13T12:05:28.363Z,2.20
2023-04-13T12:07:58.685Z,1.45
2023-04-13T12:10:38.186Z,1.52
2023-04-13T12:16:05.392Z,1.90
2023-04-13T12:18:43.901Z,3.85
2023-04-13T12:21:16.360Z,1.70
2023-04-13T12:23:54.165Z,1.60
2023-04-13T12:28:58.137Z,1.67
2023-04-13T12:31:26.306Z,1.40
2023-04-13T12:33:54.036Z,1.40
2023-04-13T12:36:22.472Z,1.77
2023-04-13T12:38:50.316Z,1.30
2023-04-13T12:41:17.991Z,1.52
2023-04-13T12:43:46.360Z,2.22
2023-04-13T12:46:15.627Z,1.77
2023-04-13T12:48:43.328Z,1.90
2023-04-13T12:51:11.930Z,1.55
2023-04-13T12:53:39.907Z,1.48
2023-04-13T12:56:08.340Z,1.63
2023-04-13T12:58:36.922Z,1.65
2023-04-13T13:01:04.896Z,1.33
2023-04-13T13:03:34.039Z,1.60
2023-04-13T13:06:01.845Z,1.95
2023-04-13T13:08:30.516Z,1.50
2023-04-13T13:13:27.173Z,1.83
2023-04-13T13:15:54.843Z,1.65
2023-04-13T13:18:22.514Z,1.33
2023-04-13T13:20:54.018Z,1.58
2023-04-13T13:23:21.742Z,1.55
2023-04-13T13:26:10.618Z,1.40
2023-04-13T13:28:38.962Z,1.17
2023-04-13T13:31:07.910Z,1.55
2023-04-13T13:33:36.268Z,1.63
2023-04-13T13:36:06.127Z,1.95
2023-04-13T13:38:35.840Z,1.80
2023-04-13T13:41:04.433Z,1.50
2023-04-13T13:43:32.526Z,1.92
2023-04-13T13:46:00.275Z,1.55
2023-04-13T13:48:28.268Z,1.52
2023-04-13T13:50:56.828Z,1.58
2023-04-13T13:53:25.881Z,1.50
2023-04-13T13:55:54.059Z,1.63
2023-04-13T13:58:22.489Z,1.40
2023-04-13T14:00:50.439Z,1.88
2023-04-13T14:03:18.514Z,1.17
2023-04-13T14:05:46.622Z,1.40
2023-04-13T14:08:14.343Z,1.63
2023-04-13T14:10:48.527Z,1.55
2023-04-13T14:13:16.302Z,1.30
2023-04-13T14:15:44.001Z,1.70
2023-04-13T14:18:12.275Z,2.15
2023-04-13T14:20:40.647Z,1.95
2023-04-13T14:23:09.375Z,1.80
2023-04-13T14:25:37.743Z,1.83
2023-04-13T14:28:09.290Z,2.22
2023-04-13T14:30:37.402Z,3.05
2023-04-13T14:33:05.748Z,2.65
2023-04-13T14:35:33.505Z,2.20
2023-04-13T14:38:02.010Z,2.80
2023-04-13T14:40:29.777Z,2.20
2023-04-13T14:42:57.616Z,5.03
2023-04-13T14:45:27.177Z,7.13
2023-04-13T14:50:22.929Z,4.20
2023-04-13T14:52:51.347Z,2.92
2023-04-13T14:55:19.262Z,2.95
2023-04-13T14:57:47.059Z,2.35
2023-04-13T15:00:21.686Z,1.85
2023-04-13T15:02:52.419Z,2.33
2023-04-13T15:05:20.618Z,3.30
2023-04-13T15:07:49.008Z,2.22
2023-04-13T15:10:17.655Z,1.67
2023-04-13T15:12:45.436Z,1.47
2023-04-13T15:15:13.764Z,2.30
2023-04-13T15:17:41.484Z,2.30
2023-04-13T15:20:12.039Z,1.77
2023-04-13T15:22:40.459Z,1.65
2023-04-13T15:25:08.703Z,2.08
2023-04-13T15:27:36.501Z,1.77
2023-04-13T15:30:04.918Z,1.88
2023-04-13T15:32:34.796Z,2.08
2023-04-13T15:35:02.770Z,2.30
2023-04-13T15:37:32.650Z,1.95
2023-04-13T15:40:01.433Z,2.03
2023-04-13T15:42:29.697Z,1.80
2023-04-13T15:44:58.259Z,1.70
2023-04-13T15:47:26.004Z,1.90
2023-04-13T15:49:54.246Z,1.52
2023-04-13T15:52:23.088Z,1.70
2023-04-13T15:54:52.460Z,1.38
2023-04-13T15:57:20.781Z,1.40
2023-04-13T16:02:38.169Z,1.80
2023-04-13T16:05:08.464Z,2.50
2023-04-13T16:07:36.850Z,2.08
2023-04-13T16:10:07.832Z,2.00
2023-04-13T16:12:40.132Z,2.78
2023-04-13T16:15:09.211Z,2.70
2023-04-13T16:17:40.872Z,2.35
2023-04-13T16:20:19.681Z,2.90
2023-04-13T16:22:50.003Z,2.65
2023-04-13T16:25:20.392Z,2.58
2023-04-13T16:27:49.295Z,2.50
2023-04-13T16:30:21.321Z,2.58
2023-04-13T16:32:50.928Z,2.30
2023-04-13T16:35:19.276Z,2.50
2023-04-13T16:37:47.883Z,2.17
2023-04-13T16:40:16.897Z,2.30
2023-04-13T16:42:46.812Z,2.00
2023-04-13T16:45:15.595Z,1.98
2023-04-13T16:47:43.899Z,1.80
2023-04-13T16:50:13.326Z,1.67
2023-04-13T16:52:41.999Z,1.88
2023-04-13T16:55:15.053Z,1.60
2023-04-13T16:57:44.505Z,1.60
2023-04-13T17:00:15.635Z,1.50
2023-04-13T17:02:44.425Z,1.85
2023-04-13T17:05:13.614Z,1.30
2023-04-13T17:07:42.649Z,1.45
2023-04-13T17:10:13.069Z,1.42
2023-04-13T17:12:41.565Z,1.40
2023-04-13T17:15:10.751Z,1.27
2023-04-13T17:17:40.722Z,1.40
2023-04-13T17:20:10.146Z,1.52
2023-04-13T17:22:38.563Z,1.33
2023-04-13T17:25:07.934Z,1.30
2023-04-13T17:27:36.023Z,1.70
2023-04-13T17:30:04.288Z,1.63
2023-04-13T17:32:32.830Z,1.67
2023-04-13T17:35:02.233Z,1.60
2023-04-13T17:37:30.528Z,2.10
2023-04-13T17:39:59.086Z,2.05
2023-04-13T17:42:28.351Z,1.40
2023-04-13T17:44:56.499Z,1.92
2023-04-13T17:47:26.176Z,2.03
2023-04-13T17:52:23.431Z,1.50
2023-04-13T17:54:52.082Z,1.50
2023-04-13T17:57:20.063Z,1.80
2023-04-13T17:59:47.946Z,1.70
2023-04-13T18:02:16.530Z,1.50
2023-04-13T18:04:44.580Z,1.33
2023-04-13T18:07:12.466Z,1.77
2023-04-13T18:09:42.329Z,1.30
2023-04-13T18:12:10.229Z,1.90
2023-04-13T18:14:38.114Z,1.70
2023-04-13T18:17:07.414Z,1.60
2023-04-13T18:19:35.376Z,1.40
2023-04-13T18:22:03.494Z,1.40
2023-04-13T18:24:32.140Z,1.80
2023-04-13T18:27:01.428Z,1.80
2023-04-13T18:29:29.459Z,1.65
2023-04-13T18:31:58.200Z,1.42
2023-04-13T18:34:26.490Z,1.50
2023-04-13T18:36:54.514Z,1.60
2023-04-13T18:39:23.137Z,1.73
2023-04-13T18:41:51.277Z,1.55
2023-04-13T18:44:20.641Z,1.38
2023-04-13T18:46:49.392Z,2.00
2023-04-13T18:49:17.478Z,1.67
2023-04-13T18:51:45.543Z,1.75
2023-04-13T18:54:14.108Z,1.77
2023-04-13T18:56:42.205Z,1.65
2023-04-13T18:59:10.676Z,2.00
2023-04-13T19:01:40.868Z,1.90
2023-04-13T19:04:09.043Z,1.40
2023-04-13T19:06:38.656Z,1.60
2023-04-13T19:09:07.151Z,1.90
2023-04-13T19:11:47.574Z,1.85
2023-04-13T19:14:16.378Z,1.95
2023-04-13T19:16:48.150Z,1.73
2023-04-13T19:19:17.177Z,2.08
2023-04-13T19:21:45.740Z,1.80
2023-04-13T19:24:14.377Z,2.08
2023-04-13T19:26:43.087Z,1.80
2023-04-13T19:29:13.106Z,1.80
2023-04-13T19:31:44.354Z,1.75
2023-04-13T19:34:14.327Z,1.70
2023-04-13T19:36:42.841Z,2.30
2023-04-13T19:39:11.467Z,2.05
2023-04-13T19:41:41.169Z,2.42
2023-04-13T19:44:09.814Z,2.42
2023-04-13T19:46:39.175Z,2.50
2023-04-13T19:49:07.952Z,2.35
2023-04-13T19:51:37.427Z,2.23
2023-04-13T19:54:06.661Z,2.30
2023-04-13T19:56:35.826Z,1.92
2023-04-13T19:59:05.599Z,2.05
2023-04-13T20:01:35.252Z,2.17
2023-04-13T20:06:34.439Z,2.40
2023-04-13T20:09:12.344Z,2.75
2023-04-13T20:11:41.263Z,2.63
2023-04-13T20:14:09.937Z,2.50
2023-04-13T20:16:39.237Z,2.57
2023-04-13T20:19:09.300Z,2.63
2023-04-13T20:21:38.052Z,2.30
2023-04-13T20:24:06.710Z,2.97
2023-04-13T20:26:36.201Z,2.70
2023-04-13T20:29:05.462Z,2.33
2023-04-13T20:31:34.887Z,2.72
2023-04-13T20:34:04.154Z,2.22
2023-04-13T20:36:32.658Z,2.67
2023-04-13T20:39:01.376Z,2.65
2023-04-13T20:41:32.248Z,2.70
2023-04-13T20:44:02.798Z,3.00
2023-04-13T20:46:35.738Z,2.55
2023-04-13T20:49:05.637Z,2.70
2023-04-13T20:51:34.232Z,3.10
2023-04-13T20:54:05.708Z,3.50
2023-04-13T20:56:34.365Z,3.88
2023-04-13T20:59:04.633Z,4.07
2023-04-13T21:01:33.309Z,3.92
2023-04-13T21:04:01.573Z,5.37
2023-04-13T21:06:30.267Z,3.42
2023-04-13T21:08:59.318Z,4.20
2023-04-13T21:11:27.500Z,3.58
2023-04-13T21:13:55.989Z,3.42
2023-04-13T21:16:27.078Z,3.15
2023-04-13T21:18:56.033Z,3.15
2023-04-13T21:21:25.069Z,3.00
2023-04-13T21:23:54.870Z,3.20
2023-04-13T21:28:50.956Z,3.10
2023-04-13T21:31:19.533Z,3.30
2023-04-13T21:33:49.622Z,3.15
2023-04-13T21:38:49.580Z,2.90
2023-04-13T21:41:18.398Z,2.85
2023-04-13T21:43:47.155Z,3.10
2023-04-13T21:46:16.956Z,2.88
2023-04-13T21:48:45.073Z,3.22
2023-04-13T21:51:14.518Z,2.70
2023-04-13T21:53:43.022Z,3.15
2023-04-13T21:56:10.715Z,2.88
2023-04-13T21:58:40.438Z,2.67
2023-04-13T22:03:37.954Z,2.75
2023-04-13T22:06:07.466Z,2.67
2023-04-13T22:08:37.707Z,2.72
2023-04-13T22:11:06.474Z,2.55
2023-04-13T22:13:34.674Z,2.53
2023-04-13T22:16:02.622Z,2.50
2023-04-13T22:18:30.590Z,2.55
2023-04-13T22:20:59.990Z,2.75
2023-04-13T22:23:28.628Z,2.67
2023-04-13T22:26:01.464Z,2.63
2023-04-13T22:28:30.937Z,3.03
2023-04-13T22:30:59.467Z,2.78
2023-04-13T22:33:32.260Z,3.28
2023-04-13T22:36:00.327Z,2.70
2023-04-13T22:38:28.380Z,2.65
2023-04-13T22:40:58.926Z,2.60
2023-04-13T22:43:26.998Z,2.45
2023-04-13T22:45:59.392Z,2.63
2023-04-13T22:48:29.607Z,2.78
2023-04-13T22:50:57.912Z,2.67
2023-04-13T22:53:26.684Z,2.55
2023-04-13T22:55:54.844Z,2.90
2023-04-13T22:58:24.323Z,2.42
2023-04-13T23:00:53.143Z,2.55
2023-04-13T23:03:21.465Z,2.83
2023-04-13T23:05:49.859Z,2.65
2023-04-13T23:08:18.440Z,2.53
2023-04-13T23:10:46.626Z,2.42
2023-04-13T23:13:14.512Z,2.70
2023-04-13T23:15:44.183Z,2.60
2023-04-13T23:20:39.926Z,2.70
2023-04-13T23:23:08.426Z,2.97
2023-04-13T23:25:36.431Z,2.60
2023-04-13T23:28:04.567Z,2.47
2023-04-13T23:30:33.136Z,2.58
2023-04-13T23:33:02.770Z,2.47
2023-04-13T23:37:58.983Z,2.55
2023-04-13T23:40:27.133Z,2.30
2023-04-13T23:42:55.050Z,2.80
2023-04-13T23:45:23.593Z,2.20
2023-04-13T23:47:51.742Z,2.40
2023-04-13T23:50:21.573Z,2.35
2023-04-13T23:52:50.195Z,2.08
2023-04-13T23:55:18.145Z,2.38
2023-04-13T23:57:46.749Z,2.83
